Dennysville, Maine
Current Conditions -  °F | °C
As of 7:15 AM on Sunday 25 Jan 2015 (Local Time) from KBHB Reporting Station
Broken Clouds Broken Clouds  
Wind Chill: 24°   Ceiling: 9000
Heat Index: 30°   Visibility: 10mi
Dew Point: 28°   Wind: 6mph
Humidity: 93%   Direction: 280°W
Pressure: 29.31"   Gusts: NA
Location:  44.9°N, 67.23°W
Report Text: KBHB 251215Z 28005KT 10SM BKN090 M01/M02 A2931 RMK AO1
Loading
Personal Weather Stations






























Interactive Weather Map New forecast layout! Learn more

10-Day Weather Forecast

Advertisements
Track Severe Weather on mobile